Time;durP1;ratioP1;P1;durP2;ratioP2;P2;SDS_P1;SDS_P2;PMS_P1;PMS_P2;Temp;Humidity;BMP_temperature;BMP_pressure;BME280_temperature;BME280_humidity;BME280_pressure;Samples;Min_cycle;Max_cycle;Signal;HPM_P1;HPM_P2
2023/09/17 00:01:14;;;;;;;12.97;11.87;;;18.40;1.00;;;;;;5084401;28;20570;-69
2023/09/17 00:03:41;;;;;;;13.23;12.03;;;18.40;1.00;;;;;;5084507;28;20492;-69
2023/09/17 00:06:09;;;;;;;11.93;10.93;;;18.30;1.00;;;;;;5084392;28;20460;-69
2023/09/17 00:08:37;;;;;;;12.57;11.53;;;18.30;1.00;;;;;;5083786;28;20476;-70
2023/09/17 00:11:04;;;;;;;13.37;12.27;;;18.30;1.00;;;;;;5083564;28;20539;-69
2023/09/17 00:13:31;;;;;;;12.70;11.60;;;18.20;1.00;;;;;;5084826;28;20538;-69
2023/09/17 00:16:00;;;;;;;12.80;11.80;;;18.10;1.00;;;;;;5082770;28;20464;-68
2023/09/17 00:18:27;;;;;;;11.87;10.73;;;18.10;1.00;;;;;;5084068;28;20468;-68
2023/09/17 00:20:54;;;;;;;12.03;10.97;;;18.10;1.00;;;;;;5084964;28;20535;-71
2023/09/17 00:23:22;;;;;;;11.80;10.87;;;18.10;1.00;;;;;;5085658;28;20964;-71
2023/09/17 00:25:49;;;;;;;12.53;11.00;;;18.10;1.00;;;;;;5084873;28;20464;-70
2023/09/17 00:28:16;;;;;;;12.03;10.93;;;18.00;1.00;;;;;;5088209;28;21075;-69
2023/09/17 00:30:43;;;;;;;13.83;12.67;;;18.00;1.00;;;;;;5082468;28;20456;-70
2023/09/17 00:33:11;;;;;;;13.17;12.03;;;17.90;1.00;;;;;;5087982;28;20456;-70
2023/09/17 00:35:38;;;;;;;12.03;11.03;;;17.90;1.00;;;;;;5087948;28;20561;-70
2023/09/17 00:38:05;;;;;;;12.50;11.30;;;17.90;1.00;;;;;;5085271;28;20463;-69
2023/09/17 00:40:34;;;;;;;11.27;10.17;;;17.90;1.00;;;;;;5087410;28;20460;-70
2023/09/17 00:43:01;;;;;;;11.97;10.97;;;17.90;1.00;;;;;;5087877;28;20454;-68
2023/09/17 00:45:29;;;;;;;11.47;10.37;;;17.90;1.00;;;;;;5089473;28;20453;-68
2023/09/17 00:47:57;;;;;;;12.67;11.57;;;17.90;1.00;;;;;;5082794;28;20495;-71
2023/09/17 00:50:26;;;;;;;11.50;10.60;;;17.90;1.00;;;;;;5085318;28;20534;-69
2023/09/17 00:52:53;;;;;;;12.30;11.30;;;17.90;1.00;;;;;;5085714;28;20823;-70
2023/09/17 00:55:20;;;;;;;13.50;11.93;;;17.80;1.00;;;;;;5086216;28;20846;-70
2023/09/17 00:57:49;;;;;;;13.60;12.50;;;17.80;1.00;;;;;;5084671;28;20556;-69
2023/09/17 01:00:20;;;;;;;16.03;11.83;;;17.70;1.00;;;;;;5084889;28;20482;-70
2023/09/17 01:02:48;;;;;;;12.50;11.40;;;17.70;1.00;;;;;;5067756;28;20463;-70
2023/09/17 01:05:15;;;;;;;12.23;11.10;;;17.60;1.00;;;;;;5084324;28;20470;-70
2023/09/17 01:07:45;;;;;;;12.07;11.10;;;17.60;1.00;;;;;;5088216;28;20998;-69
2023/09/17 01:10:13;;;;;;;13.10;12.00;;;17.60;1.00;;;;;;5089465;28;20508;-70
2023/09/17 01:12:42;;;;;;;12.13;11.00;;;17.60;1.00;;;;;;5090381;28;20455;-70
2023/09/17 01:15:10;;;;;;;14.23;12.73;;;17.60;1.00;;;;;;5087427;28;20508;-69
2023/09/17 01:17:37;;;;;;;11.93;10.93;;;17.70;1.00;;;;;;5086485;28;20552;-69
2023/09/17 01:20:24;;;;;;;13.23;12.03;;;17.70;1.00;;;;;;5092399;28;20463;-69
2023/09/17 01:22:59;;;;;;;13.30;12.10;;;17.60;1.00;;;;;;5089551;28;20491;-69
2023/09/17 01:25:40;;;;;;;12.30;11.20;;;17.60;1.00;;;;;;5086796;28;20456;-71
2023/09/17 01:28:11;;;;;;;11.73;10.73;;;17.60;1.00;;;;;;5089122;28;21241;-68
2023/09/17 01:30:39;;;;;;;14.30;13.00;;;17.60;1.00;;;;;;5088087;28;20452;-71
2023/09/17 01:33:09;;;;;;;12.70;11.60;;;17.50;1.00;;;;;;5069607;28;20461;-71
2023/09/17 01:35:44;;;;;;;12.27;11.00;;;17.50;1.00;;;;;;5089897;28;20460;-70
2023/09/17 01:38:16;;;;;;;14.20;12.87;;;17.40;1.00;;;;;;5088088;28;20649;-70
2023/09/17 01:40:48;;;;;;;12.63;11.53;;;17.40;1.00;;;;;;5087494;27;20520;-71
2023/09/17 01:43:17;;;;;;;11.83;10.77;;;17.30;1.00;;;;;;5089367;28;20452;-68
2023/09/17 01:45:45;;;;;;;12.73;11.57;;;17.30;1.00;;;;;;5088688;28;20463;-68
2023/09/17 01:48:12;;;;;;;12.90;11.90;;;17.20;1.00;;;;;;5088137;28;20555;-69
2023/09/17 01:50:40;;;;;;;12.70;11.60;;;17.20;1.00;;;;;;5090367;28;20539;-69
2023/09/17 01:53:07;;;;;;;12.40;11.27;;;17.10;1.00;;;;;;5086701;28;20542;-68
2023/09/17 01:55:35;;;;;;;13.20;12.20;;;17.10;1.00;;;;;;5091382;28;20464;-69
2023/09/17 01:58:03;;;;;;;13.90;12.70;;;17.10;1.00;;;;;;5092003;28;20548;-70
2023/09/17 02:00:32;;;;;;;12.60;11.50;;;17.00;1.00;;;;;;5084755;28;20456;-69
2023/09/17 02:02:59;;;;;;;12.53;11.37;;;17.00;1.00;;;;;;5091033;28;20549;-69
2023/09/17 02:05:25;;;;;;;12.73;11.60;;;17.00;1.00;;;;;;5091472;28;20537;-71
2023/09/17 02:07:53;;;;;;;12.40;11.30;;;16.90;1.00;;;;;;5084748;28;20512;-71
2023/09/17 02:10:20;;;;;;;12.07;10.97;;;16.90;1.00;;;;;;5087636;28;20536;-68
2023/09/17 02:12:47;;;;;;;12.77;11.67;;;16.90;1.00;;;;;;5087268;28;20872;-71
2023/09/17 02:15:14;;;;;;;13.60;12.50;;;16.80;1.00;;;;;;5088698;28;20961;-70
2023/09/17 02:17:43;;;;;;;13.50;12.40;;;16.80;1.00;;;;;;5084127;28;20908;-70
2023/09/17 02:20:11;;;;;;;12.90;11.60;;;16.80;1.00;;;;;;5085351;28;20492;-70
2023/09/17 02:22:38;;;;;;;13.83;12.50;;;16.80;1.00;;;;;;5088580;28;20459;-69
2023/09/17 02:25:06;;;;;;;13.00;12.00;;;16.80;1.00;;;;;;5090498;28;20455;-72
2023/09/17 02:27:33;;;;;;;13.70;12.53;;;16.70;1.00;;;;;;5087052;28;20475;-70
2023/09/17 02:30:00;;;;;;;13.10;11.90;;;16.70;1.00;;;;;;5087652;28;20907;-71
2023/09/17 02:32:27;;;;;;;13.40;12.30;;;16.70;1.00;;;;;;5091893;28;20875;-70
2023/09/17 02:34:56;;;;;;;14.20;12.67;;;16.70;1.00;;;;;;5085706;28;20459;-70
2023/09/17 02:37:23;;;;;;;14.03;12.60;;;16.60;1.00;;;;;;5088675;28;20486;-70
2023/09/17 02:39:50;;;;;;;13.67;12.37;;;16.60;1.00;;;;;;5088169;28;20524;-69
2023/09/17 02:42:17;;;;;;;13.20;11.87;;;16.60;1.00;;;;;;5088089;28;20482;-69
2023/09/17 02:44:44;;;;;;;13.57;12.30;;;16.60;1.00;;;;;;5087280;28;21005;-70
2023/09/17 02:47:11;;;;;;;13.50;12.30;;;16.70;1.00;;;;;;5090504;28;20593;-69
2023/09/17 02:49:38;;;;;;;12.90;11.80;;;16.70;1.00;;;;;;5084211;28;20972;-69
2023/09/17 02:52:07;;;;;;;13.80;12.50;;;16.60;1.00;;;;;;5089255;28;20462;-71
2023/09/17 02:54:34;;;;;;;14.33;12.97;;;16.70;1.00;;;;;;5091065;28;20571;-69
2023/09/17 02:57:01;;;;;;;13.03;11.77;;;16.60;1.00;;;;;;5088416;27;20458;-68
2023/09/17 02:59:28;;;;;;;13.53;12.23;;;16.70;1.00;;;;;;5088109;28;20549;-68
2023/09/17 03:01:55;;;;;;;13.73;12.63;;;16.60;1.00;;;;;;5091018;28;20541;-71
2023/09/17 03:04:24;;;;;;;12.53;11.60;;;16.60;1.00;;;;;;5088838;28;20455;-69
2023/09/17 03:06:51;;;;;;;14.23;12.87;;;16.60;1.00;;;;;;5087896;28;20474;-69
2023/09/17 03:09:20;;;;;;;12.83;11.70;;;16.50;1.00;;;;;;5087891;28;20427;-70
2023/09/17 03:11:47;;;;;;;12.57;11.50;;;16.50;1.00;;;;;;5087465;28;20538;-70
2023/09/17 03:14:14;;;;;;;14.40;13.07;;;16.50;1.00;;;;;;5090654;28;20988;-71
2023/09/17 03:16:41;;;;;;;13.90;12.60;;;16.50;1.00;;;;;;5089936;28;20523;-72
2023/09/17 03:19:07;;;;;;;13.60;12.40;;;16.50;1.00;;;;;;5088899;28;20477;-71
2023/09/17 03:21:40;;;;;;;13.00;11.83;;;16.50;1.00;;;;;;5089880;28;20454;-69
2023/09/17 03:24:07;;;;;;;14.57;13.20;;;16.50;1.00;;;;;;5086772;28;20616;-70
2023/09/17 03:26:37;;;;;;;13.93;12.73;;;16.40;1.00;;;;;;5089897;28;21063;-70
2023/09/17 03:29:05;;;;;;;13.80;12.70;;;16.40;1.00;;;;;;5088593;28;20961;-69
2023/09/17 03:31:32;;;;;;;16.13;13.87;;;16.40;1.00;;;;;;5090785;28;20457;-69
2023/09/17 03:33:59;;;;;;;13.77;12.67;;;16.40;1.00;;;;;;5085596;28;20494;-70
2023/09/17 03:36:26;;;;;;;13.10;12.00;;;16.40;1.00;;;;;;5088803;28;20544;-70
2023/09/17 03:38:53;;;;;;;13.90;12.70;;;16.50;1.00;;;;;;5087440;28;20454;-70
2023/09/17 03:41:20;;;;;;;13.57;12.40;;;16.40;1.00;;;;;;5084867;28;20887;-69
2023/09/17 03:43:48;;;;;;;13.63;12.53;;;16.50;1.00;;;;;;5090523;28;20532;-70
2023/09/17 03:46:15;;;;;;;13.83;12.63;;;16.50;1.00;;;;;;5090701;28;20470;-70
2023/09/17 03:48:42;;;;;;;13.80;12.50;;;16.50;1.00;;;;;;5086508;28;20505;-70
2023/09/17 03:51:09;;;;;;;13.53;12.30;;;16.50;1.00;;;;;;5087732;28;20528;-70
2023/09/17 03:53:36;;;;;;;14.70;13.30;;;16.50;1.00;;;;;;5087977;28;20544;-69
2023/09/17 03:56:04;;;;;;;14.37;13.07;;;16.40;1.00;;;;;;5087364;28;20550;-71
2023/09/17 03:58:31;;;;;;;13.17;11.97;;;16.40;1.00;;;;;;5089659;28;20451;-71
2023/09/17 04:00:59;;;;;;;13.50;12.30;;;16.30;1.00;;;;;;5086417;28;20471;-69
2023/09/17 04:03:26;;;;;;;14.60;13.30;;;16.30;1.00;;;;;;5086098;28;20869;-69
2023/09/17 04:05:53;;;;;;;14.60;13.30;;;16.30;1.00;;;;;;5085914;28;20466;-69
2023/09/17 04:08:21;;;;;;;14.70;13.57;;;16.30;1.00;;;;;;5087203;28;20446;-70
2023/09/17 04:10:49;;;;;;;14.60;13.40;;;16.20;1.00;;;;;;5081309;28;20477;-70
2023/09/17 04:13:16;;;;;;;14.17;12.97;;;16.10;1.00;;;;;;5086440;28;21900;-72
2023/09/17 04:15:43;;;;;;;15.03;13.67;;;16.10;1.00;;;;;;5085537;28;21059;-70
2023/09/17 04:18:11;;;;;;;14.67;13.37;;;16.00;1.00;;;;;;5088500;28;20516;-70
2023/09/17 04:20:38;;;;;;;13.20;12.20;;;16.00;1.00;;;;;;5086787;28;21052;-69
2023/09/17 04:23:06;;;;;;;14.53;13.17;;;15.90;1.00;;;;;;5087922;28;21043;-68
2023/09/17 04:25:35;;;;;;;14.57;13.40;;;15.90;1.00;;;;;;5088861;28;20477;-70
2023/09/17 04:28:02;;;;;;;14.27;13.00;;;15.80;1.00;;;;;;5082871;28;20465;-70
2023/09/17 04:30:29;;;;;;;14.97;13.67;;;15.80;1.00;;;;;;5083977;28;20941;-73
2023/09/17 04:32:57;;;;;;;14.40;13.10;;;15.80;1.00;;;;;;5084182;28;20982;-69
2023/09/17 04:35:26;;;;;;;15.07;13.87;;;15.80;1.00;;;;;;5083516;28;21024;-69
2023/09/17 04:37:53;;;;;;;14.27;13.17;;;15.80;1.00;;;;;;5084767;28;20442;-72
2023/09/17 04:40:24;;;;;;;14.63;13.33;;;15.80;1.00;;;;;;5086061;28;21360;-69
2023/09/17 04:42:52;;;;;;;14.50;13.30;;;15.80;1.00;;;;;;5086643;28;20474;-68
2023/09/17 04:45:33;;;;;;;15.47;13.97;;;15.90;1.00;;;;;;5079691;28;20545;-69
2023/09/17 04:48:00;;;;;;;15.73;14.23;;;15.90;1.00;;;;;;5086050;28;20455;-68
2023/09/17 04:50:29;;;;;;;14.47;13.27;;;15.90;1.00;;;;;;5087657;28;20969;-69
2023/09/17 04:52:56;;;;;;;14.83;13.37;;;15.90;1.00;;;;;;5085432;28;20495;-70
2023/09/17 04:55:23;;;;;;;15.73;14.43;;;15.90;1.00;;;;;;5086859;28;20982;-72
2023/09/17 04:57:51;;;;;;;14.60;13.30;;;15.90;1.00;;;;;;5084709;28;21178;-69
2023/09/17 05:00:20;;;;;;;14.93;13.70;;;15.80;1.00;;;;;;5081156;28;20462;-69
2023/09/17 05:02:48;;;;;;;15.13;13.83;;;15.80;1.00;;;;;;5083313;28;20471;-72
2023/09/17 05:05:17;;;;;;;16.83;15.13;;;15.80;1.00;;;;;;5085651;28;20462;-69
2023/09/17 05:07:47;;;;;;;15.60;13.93;;;15.90;1.00;;;;;;5087395;28;20455;-73
2023/09/17 05:10:14;;;;;;;14.47;13.00;;;15.90;1.00;;;;;;5086077;28;20466;-69
2023/09/17 05:12:42;;;;;;;14.30;13.07;;;16.00;1.00;;;;;;5085966;28;20451;-69
2023/09/17 05:15:10;;;;;;;14.20;12.80;;;16.10;1.00;;;;;;5083131;28;20998;-69
2023/09/17 05:17:37;;;;;;;15.13;13.53;;;16.10;1.00;;;;;;5085861;28;20450;-69
2023/09/17 05:20:06;;;;;;;15.37;13.97;;;16.10;1.00;;;;;;5082676;28;20461;-69
2023/09/17 05:22:34;;;;;;;16.90;15.40;;;16.20;1.00;;;;;;5086572;28;20469;-68
2023/09/17 05:25:03;;;;;;;14.43;13.30;;;16.20;1.00;;;;;;5086192;28;20530;-70
2023/09/17 05:27:30;;;;;;;14.20;13.00;;;16.20;1.00;;;;;;5087971;28;20454;-69
2023/09/17 05:29:57;;;;;;;14.33;13.13;;;16.20;1.00;;;;;;5089108;28;20554;-69
2023/09/17 05:32:24;;;;;;;15.93;14.53;;;16.30;1.00;;;;;;5088806;28;20547;-69
2023/09/17 05:34:51;;;;;;;14.27;13.07;;;16.30;1.00;;;;;;5085443;28;20579;-70
2023/09/17 05:37:18;;;;;;;14.57;13.37;;;16.40;1.00;;;;;;5084234;28;20974;-70
2023/09/17 05:39:44;;;;;;;15.53;13.80;;;16.40;1.00;;;;;;5087564;28;20510;-72
2023/09/17 05:42:13;;;;;;;15.43;13.90;;;16.50;1.00;;;;;;5086938;28;20541;-69
2023/09/17 05:44:40;;;;;;;13.30;11.80;;;16.50;1.00;;;;;;5085061;28;20483;-69
2023/09/17 05:47:07;;;;;;;14.30;13.10;;;16.60;1.00;;;;;;5086538;28;20549;-73
2023/09/17 05:49:34;;;;;;;16.20;14.50;;;16.70;1.00;;;;;;5088174;28;20473;-69
2023/09/17 05:52:00;;;;;;;15.30;14.00;;;16.70;1.00;;;;;;5084670;28;20560;-71
2023/09/17 05:54:27;;;;;;;14.93;13.53;;;16.80;1.00;;;;;;5088652;28;20510;-70
2023/09/17 05:56:55;;;;;;;14.70;13.60;;;16.90;1.00;;;;;;5086988;28;20980;-72
2023/09/17 05:59:23;;;;;;;14.33;12.93;;;16.90;1.00;;;;;;5089394;28;20473;-69
2023/09/17 06:01:50;;;;;;;15.93;14.63;;;17.00;1.00;;;;;;5088132;28;20469;-71
2023/09/17 06:04:17;;;;;;;14.57;13.27;;;17.10;1.00;;;;;;5091350;28;20991;-70
2023/09/17 06:06:44;;;;;;;15.37;13.83;;;17.20;1.00;;;;;;5089368;28;20486;-70
2023/09/17 06:09:11;;;;;;;16.50;14.77;;;17.20;1.00;;;;;;5091208;28;20459;-70
2023/09/17 06:11:38;;;;;;;15.00;13.70;;;17.20;1.00;;;;;;5085205;28;20942;-70
2023/09/17 06:14:05;;;;;;;14.80;13.50;;;17.30;1.00;;;;;;5090819;28;20891;-70
2023/09/17 06:16:34;;;;;;;15.23;14.03;;;17.30;1.00;;;;;;5089264;28;20473;-71
2023/09/17 06:19:02;;;;;;;14.83;13.73;;;17.50;1.00;;;;;;5085446;28;20470;-71
2023/09/17 06:21:30;;;;;;;14.07;12.87;;;17.60;1.00;;;;;;5089147;28;20566;-70
2023/09/17 06:23:57;;;;;;;13.83;12.47;;;17.60;1.00;;;;;;5084771;28;20497;-70
2023/09/17 06:26:24;;;;;;;14.90;13.60;;;17.70;1.00;;;;;;5089706;28;20578;-69
2023/09/17 06:28:50;;;;;;;15.67;14.37;;;17.70;1.00;;;;;;5082009;28;20478;-70
2023/09/17 06:31:18;;;;;;;15.60;14.17;;;17.80;1.00;;;;;;5089859;28;20982;-70
2023/09/17 06:33:47;;;;;;;15.40;14.03;;;17.90;1.00;;;;;;5090067;28;20496;-72
2023/09/17 06:36:13;;;;;;;15.33;14.13;;;18.00;1.00;;;;;;5086361;28;20582;-69
2023/09/17 06:38:40;;;;;;;13.23;12.13;;;18.10;1.00;;;;;;5089222;28;20474;-69
2023/09/17 06:41:07;;;;;;;15.00;13.60;;;18.10;1.00;;;;;;5087009;28;20628;-68
2023/09/17 06:43:34;;;;;;;15.00;13.80;;;18.10;1.00;;;;;;5083979;28;20496;-69
2023/09/17 06:46:01;;;;;;;14.43;13.23;;;18.20;1.00;;;;;;5088222;28;20875;-69
2023/09/17 06:48:28;;;;;;;16.10;14.80;;;18.30;1.00;;;;;;5092908;28;20480;-69
2023/09/17 06:50:57;;;;;;;16.53;15.07;;;18.40;1.00;;;;;;5090890;28;20472;-69
2023/09/17 06:53:24;;;;;;;16.67;15.10;;;18.40;1.00;;;;;;5091329;28;20519;-70
2023/09/17 06:55:51;;;;;;;15.80;14.50;;;18.40;1.00;;;;;;5089679;28;20462;-69
2023/09/17 06:58:18;;;;;;;15.80;14.50;;;18.50;1.00;;;;;;5088507;28;20460;-69
2023/09/17 07:00:45;;;;;;;15.23;13.93;;;18.60;1.00;;;;;;5085875;28;20472;-70
2023/09/17 07:03:12;;;;;;;16.40;14.73;;;18.80;1.00;;;;;;5087478;28;20477;-70
2023/09/17 07:05:39;;;;;;;15.93;14.43;;;18.80;1.00;;;;;;5088301;28;20535;-69
2023/09/17 07:08:07;;;;;;;14.80;13.50;;;18.90;1.00;;;;;;5087313;28;20546;-70
2023/09/17 07:10:34;;;;;;;15.40;14.10;;;19.10;1.00;;;;;;5086492;28;20459;-71
2023/09/17 07:13:01;;;;;;;14.20;13.00;;;19.20;1.00;;;;;;5086185;28;20520;-69
2023/09/17 07:15:28;;;;;;;16.17;14.67;;;19.30;1.00;;;;;;5090572;28;20984;-74
2023/09/17 07:17:58;;;;;;;14.90;13.50;;;19.50;1.00;;;;;;5087004;28;20998;-71
2023/09/17 07:20:25;;;;;;;15.00;13.70;;;19.70;1.00;;;;;;5087671;28;20577;-69
2023/09/17 07:22:51;;;;;;;15.80;14.60;;;19.80;1.00;;;;;;5088514;28;20550;-74
2023/09/17 07:25:20;;;;;;;15.40;13.90;;;19.90;1.00;;;;;;5089659;28;20516;-73
2023/09/17 07:27:47;;;;;;;14.93;13.63;;;20.00;1.00;;;;;;5085758;28;21041;-74
2023/09/17 07:30:15;;;;;;;15.17;13.67;;;20.00;1.00;;;;;;5081541;28;20470;-73
2023/09/17 07:32:42;;;;;;;15.70;14.40;;;20.00;1.00;;;;;;5089359;28;20473;-72
2023/09/17 07:35:09;;;;;;;14.50;13.30;;;20.20;1.00;;;;;;5075330;28;20452;-73
2023/09/17 07:37:36;;;;;;;15.73;14.50;;;20.30;1.00;;;;;;5083247;28;21000;-73
2023/09/17 07:40:05;;;;;;;15.03;13.63;;;20.30;1.00;;;;;;5088168;28;20958;-74
2023/09/17 07:42:34;;;;;;;15.07;13.77;;;20.50;1.00;;;;;;5078113;28;20480;-74
2023/09/17 07:45:00;;;;;;;13.70;12.60;;;20.60;1.00;;;;;;5086029;28;20561;-73
2023/09/17 07:47:28;;;;;;;14.90;13.70;;;20.70;1.00;;;;;;5084329;28;20556;-73
2023/09/17 07:49:55;;;;;;;15.53;14.13;;;20.90;1.00;;;;;;5084164;28;20490;-74
2023/09/17 07:52:22;;;;;;;15.43;14.10;;;21.00;1.00;;;;;;5083924;28;20477;-74
2023/09/17 07:54:49;;;;;;;14.37;13.17;;;21.10;1.00;;;;;;5084287;28;21027;-74
2023/09/17 07:57:15;;;;;;;14.43;13.33;;;21.20;1.00;;;;;;5085107;28;20506;-73
2023/09/17 07:59:44;;;;;;;14.80;13.47;;;21.40;1.00;;;;;;5084717;28;20512;-72
2023/09/17 08:02:11;;;;;;;14.30;13.10;;;21.50;1.00;;;;;;5086284;28;20518;-74
2023/09/17 08:04:38;;;;;;;14.67;13.47;;;21.60;1.00;;;;;;5084585;28;20559;-73
2023/09/17 08:07:05;;;;;;;15.50;14.20;;;21.70;1.00;;;;;;5084058;28;20485;-73
2023/09/17 08:09:32;;;;;;;13.40;12.20;;;21.70;1.00;;;;;;5085354;28;20466;-74
2023/09/17 08:12:00;;;;;;;13.67;12.67;;;21.80;1.00;;;;;;5086449;28;21052;-75
2023/09/17 08:14:28;;;;;;;15.03;13.70;;;21.80;1.00;;;;;;5082798;28;20460;-74
2023/09/17 08:16:56;;;;;;;14.17;12.77;;;21.80;1.00;;;;;;5082273;28;21298;-73
2023/09/17 08:19:23;;;;;;;15.00;13.60;;;21.90;1.00;;;;;;5081435;28;20572;-74
2023/09/17 08:21:50;;;;;;;13.40;12.30;;;22.00;1.00;;;;;;5082388;28;20570;-73
2023/09/17 08:24:20;;;;;;;14.87;13.67;;;22.20;1.00;;;;;;5083118;28;20820;-73
2023/09/17 08:26:47;;;;;;;15.13;13.63;;;22.30;1.00;;;;;;5074712;28;20917;-74
2023/09/17 08:29:14;;;;;;;13.40;12.30;;;22.50;1.00;;;;;;5085220;28;20505;-72
2023/09/17 08:31:43;;;;;;;14.30;12.90;;;22.70;1.00;;;;;;5081786;28;20489;-73
2023/09/17 08:34:11;;;;;;;13.57;12.43;;;22.80;1.00;;;;;;5086426;28;20976;-73
2023/09/17 08:36:38;;;;;;;17.43;16.03;;;22.80;1.00;;;;;;5082950;28;20645;-69
2023/09/17 08:39:06;;;;;;;15.23;14.13;;;23.00;1.00;;;;;;5081385;28;20475;-71
2023/09/17 08:41:34;;;;;;;23.27;21.17;;;23.10;1.00;;;;;;5084140;28;20901;-70
2023/09/17 08:44:04;;;;;;;14.03;12.83;;;23.30;1.00;;;;;;5079868;28;20472;-70
2023/09/17 08:46:32;;;;;;;21.10;19.47;;;23.20;1.00;;;;;;5085101;28;20550;-70
2023/09/17 08:49:01;;;;;;;12.90;11.90;;;23.30;1.00;;;;;;5084398;28;20463;-70
2023/09/17 08:51:32;;;;;;;12.10;11.00;;;23.40;1.00;;;;;;5084542;28;20470;-70
2023/09/17 08:54:06;;;;;;;12.97;11.97;;;23.60;1.00;;;;;;5082518;28;20534;-69
2023/09/17 08:56:35;;;;;;;12.73;11.50;;;23.80;1.00;;;;;;5081146;28;20481;-70
2023/09/17 08:59:07;;;;;;;13.10;12.10;;;23.80;1.00;;;;;;5083865;28;20469;-70
2023/09/17 09:01:38;;;;;;;11.27;10.37;;;24.00;1.00;;;;;;5083193;28;20510;-70
2023/09/17 09:04:07;;;;;;;12.43;11.23;;;24.20;1.00;;;;;;5083777;28;20456;-69
2023/09/17 09:06:36;;;;;;;11.33;10.43;;;24.40;1.00;;;;;;5082419;28;20456;-70
2023/09/17 09:09:05;;;;;;;10.90;10.00;;;24.60;1.00;;;;;;5080240;28;20450;-70
2023/09/17 09:11:34;;;;;;;11.80;10.90;;;24.90;1.00;;;;;;5084800;28;20485;-70
2023/09/17 09:14:03;;;;;;;12.77;11.23;;;25.90;1.00;;;;;;5079519;28;20460;-70
2023/09/17 09:16:32;;;;;;;10.77;9.87;;;27.40;1.00;;;;;;5080928;28;20479;-70
2023/09/17 09:18:59;;;;;;;10.00;9.20;;;28.80;1.00;;;;;;5084384;28;20497;-70
2023/09/17 09:21:28;;;;;;;10.37;9.63;;;29.90;1.00;;;;;;5085097;28;20470;-71
2023/09/17 09:23:58;;;;;;;10.00;9.27;;;30.90;1.00;;;;;;5080602;28;20458;-70
2023/09/17 09:26:33;;;;;;;10.17;9.17;;;31.30;1.00;;;;;;5079089;28;20469;-71
2023/09/17 09:29:00;;;;;;;10.30;9.40;;;31.80;1.00;;;;;;5084054;28;20458;-71
2023/09/17 09:31:29;;;;;;;9.40;8.50;;;32.40;1.00;;;;;;5087332;28;20465;-70
2023/09/17 09:33:58;;;;;;;9.00;8.30;;;32.70;1.00;;;;;;5084554;28;20461;-69
2023/09/17 09:36:26;;;;;;;9.63;8.70;;;33.60;1.00;;;;;;5082715;28;20461;-71
2023/09/17 09:38:54;;;;;;;8.37;7.70;;;34.40;1.00;;;;;;5084966;28;20970;-70
2023/09/17 09:41:23;;;;;;;8.77;7.97;;;34.60;1.00;;;;;;5080570;28;20613;-70
2023/09/17 09:43:50;;;;;;;8.53;7.73;;;34.60;1.00;;;;;;5082851;28;20446;-72
2023/09/17 09:46:17;;;;;;;8.87;8.17;;;35.10;1.00;;;;;;5085661;28;20474;-69
2023/09/17 09:48:46;;;;;;;7.80;7.27;;;35.60;1.00;;;;;;5085619;28;20537;-73
2023/09/17 09:51:17;;;;;;;7.30;6.80;;;36.20;1.00;;;;;;5083681;28;20579;-70
2023/09/17 09:53:44;;;;;;;7.80;7.17;;;36.60;1.00;;;;;;5084646;28;20451;-69
2023/09/17 09:56:11;;;;;;;7.20;6.60;;;37.20;1.00;;;;;;5084503;28;20521;-70
2023/09/17 09:58:40;;;;;;;7.83;7.23;;;37.80;1.00;;;;;;5087578;28;20537;-72
2023/09/17 10:01:07;;;;;;;7.43;6.73;;;38.30;1.00;;;;;;5084312;28;20671;-69
2023/09/17 10:03:34;;;;;;;6.23;5.83;;;38.90;1.00;;;;;;5083167;28;20670;-69
2023/09/17 10:06:06;;;;;;;9.50;8.63;;;39.40;1.00;;;;;;5080033;28;20470;-70
2023/09/17 10:08:34;;;;;;;8.47;7.80;;;39.80;1.00;;;;;;5084583;28;20465;-73
2023/09/17 10:11:03;;;;;;;6.83;6.33;;;40.30;1.00;;;;;;5083802;28;21069;-69
2023/09/17 10:13:32;;;;;;;7.27;6.77;;;40.30;1.00;;;;;;5087319;28;20461;-72
2023/09/17 10:16:02;;;;;;;8.17;7.40;;;40.40;1.00;;;;;;5083436;28;20556;-71
2023/09/17 10:18:30;;;;;;;8.80;8.13;;;40.60;1.00;;;;;;5080749;28;20454;-72
2023/09/17 10:20:58;;;;;;;7.00;6.50;;;40.60;1.00;;;;;;5080431;28;20926;-71
2023/09/17 10:23:26;;;;;;;7.47;7.07;;;40.40;1.00;;;;;;5084086;28;20455;-71
2023/09/17 10:25:58;;;;;;;7.20;6.70;;;40.40;1.00;;;;;;5082608;28;20463;-71
2023/09/17 10:28:25;;;;;;;7.90;7.40;;;40.50;1.00;;;;;;5086461;28;20471;-72
2023/09/17 10:30:54;;;;;;;7.87;7.27;;;40.70;1.00;;;;;;5084360;28;20575;-70
2023/09/17 10:33:24;;;;;;;7.63;7.00;;;40.60;1.00;;;;;;5082831;28;20512;-71
2023/09/17 10:35:54;;;;;;;6.60;6.10;;;40.20;1.00;;;;;;5083985;28;20465;-73
2023/09/17 10:38:24;;;;;;;6.20;5.70;;;40.10;1.00;;;;;;5083347;28;20466;-70
2023/09/17 10:40:51;;;;;;;6.07;5.67;;;40.50;1.00;;;;;;5081662;28;20505;-70
2023/09/17 10:43:19;;;;;;;6.43;5.87;;;41.00;1.00;;;;;;5088079;28;20478;-72
2023/09/17 10:45:48;;;;;;;6.93;6.43;;;41.00;1.00;;;;;;5084718;28;20996;-71
2023/09/17 10:48:16;;;;;;;5.60;5.20;;;40.60;1.00;;;;;;5081487;28;20462;-72
2023/09/17 10:50:45;;;;;;;6.50;6.10;;;40.90;1.00;;;;;;5080391;28;20480;-71
2023/09/17 10:53:12;;;;;;;7.23;6.80;;;41.50;1.00;;;;;;5086702;27;20823;-71
2023/09/17 10:55:46;;;;;;;6.20;5.63;;;42.00;1.00;;;;;;5081792;28;20575;-73
2023/09/17 10:58:17;;;;;;;5.70;5.30;;;42.50;1.00;;;;;;5085147;28;20474;-72
2023/09/17 11:00:47;;;;;;;4.97;4.67;;;42.10;1.00;;;;;;5079249;28;20474;-73
2023/09/17 11:03:19;;;;;;;4.90;4.57;;;42.10;1.00;;;;;;5079913;28;20457;-73
2023/09/17 11:05:48;;;;;;;5.13;3.90;;;42.20;1.00;;;;;;5078156;28;20467;-73
2023/09/17 11:08:15;;;;;;;5.40;5.00;;;42.50;1.00;;;;;;5083085;28;20531;-74
2023/09/17 11:10:43;;;;;;;4.97;4.67;;;42.90;1.00;;;;;;5082036;28;20559;-74
2023/09/17 11:13:14;;;;;;;5.23;4.83;;;43.40;1.00;;;;;;5081845;28;20450;-74
2023/09/17 11:15:42;;;;;;;4.50;4.10;;;43.20;1.00;;;;;;5082087;28;20509;-75
2023/09/17 11:18:12;;;;;;;5.10;4.80;;;43.00;1.00;;;;;;5085377;28;20535;-76
2023/09/17 11:20:59;;;;;;;5.60;5.10;;;42.80;1.00;;;;;;5086527;28;21775;-74
2023/09/17 11:23:39;;;;;;;6.47;5.97;;;42.20;1.00;;;;;;5083050;28;20452;-74
2023/09/17 11:26:07;;;;;;;6.17;5.67;;;42.40;1.00;;;;;;5085859;28;20468;-74
2023/09/17 11:28:38;;;;;;;4.97;4.67;;;42.70;1.00;;;;;;5082012;28;20466;-74
2023/09/17 11:31:09;;;;;;;5.97;5.47;;;43.20;1.00;;;;;;5083758;28;20554;-73
2023/09/17 11:33:37;;;;;;;6.07;5.67;;;43.50;1.00;;;;;;5082664;28;20447;-75
2023/09/17 11:36:07;;;;;;;5.57;5.10;;;43.50;1.00;;;;;;5084798;28;20446;-74
2023/09/17 11:38:34;;;;;;;4.93;4.53;;;43.90;1.00;;;;;;5082289;28;20989;-74
2023/09/17 11:41:06;;;;;;;5.80;5.40;;;44.00;1.00;;;;;;5079442;28;20537;-74
2023/09/17 11:43:35;;;;;;;5.23;4.93;;;43.90;1.00;;;;;;5082463;28;20530;-73
2023/09/17 11:46:07;;;;;;;5.93;5.50;;;43.60;1.00;;;;;;5082972;28;20545;-74
2023/09/17 11:48:36;;;;;;;7.03;4.87;;;43.30;1.00;;;;;;5082962;28;20462;-73
2023/09/17 11:51:23;;;;;;;5.63;5.30;;;43.10;1.00;;;;;;5064024;28;20473;-75
2023/09/17 11:53:51;;;;;;;6.30;5.80;;;42.70;1.00;;;;;;5082687;28;20450;-73
2023/09/17 11:56:19;;;;;;;5.60;5.20;;;42.60;1.00;;;;;;5082980;28;20458;-73
2023/09/17 11:58:46;;;;;;;5.97;5.57;;;43.10;1.00;;;;;;5084138;28;20533;-73
2023/09/17 12:01:14;;;;;;;5.90;5.40;;;43.10;1.00;;;;;;5083358;28;20567;-74
2023/09/17 12:03:41;;;;;;;5.20;4.90;;;43.00;1.00;;;;;;5083083;28;20458;-74
2023/09/17 12:06:08;;;;;;;4.80;4.50;;;43.00;1.00;;;;;;5080634;28;20517;-71
2023/09/17 12:08:36;;;;;;;5.23;4.93;;;43.20;1.00;;;;;;5081978;28;20462;-71
2023/09/17 12:11:10;;;;;;;5.40;5.00;;;43.10;1.00;;;;;;5079789;28;20661;-73
2023/09/17 12:13:37;;;;;;;5.87;5.50;;;42.60;1.00;;;;;;5078151;28;20475;-72
2023/09/17 12:16:05;;;;;;;5.70;5.30;;;42.50;1.00;;;;;;5081424;28;20978;-72
2023/09/17 12:18:32;;;;;;;5.40;5.00;;;41.40;1.00;;;;;;5085688;28;20476;-72
2023/09/17 12:21:02;;;;;;;5.43;5.13;;;40.30;1.00;;;;;;5080598;28;20474;-70
2023/09/17 12:23:47;;;;;;;4.80;4.50;;;39.80;1.00;;;;;;5081394;28;20915;-72
2023/09/17 12:26:27;;;;;;;5.40;5.00;;;40.20;1.00;;;;;;5082912;28;20460;-73
2023/09/17 12:28:54;;;;;;;4.80;4.50;;;40.60;1.00;;;;;;5075997;28;20584;-73
2023/09/17 12:31:21;;;;;;;4.20;3.90;;;40.60;1.00;;;;;;5080768;28;20474;-73
2023/09/17 12:33:48;;;;;;;4.93;4.60;;;41.10;1.00;;;;;;5080981;28;20508;-72
2023/09/17 12:36:15;;;;;;;5.33;4.93;;;41.60;1.00;;;;;;5078865;28;20463;-69
2023/09/17 12:38:43;;;;;;;5.03;4.73;;;41.20;1.00;;;;;;5078618;28;20551;-69
2023/09/17 12:41:12;;;;;;;4.77;4.33;;;40.70;1.00;;;;;;5079877;28;20462;-70
2023/09/17 12:43:39;;;;;;;4.80;4.50;;;40.90;1.00;;;;;;5084633;28;21043;-71
2023/09/17 12:46:07;;;;;;;5.17;4.77;;;41.40;1.00;;;;;;5082477;28;20450;-70
2023/09/17 12:48:35;;;;;;;5.00;4.70;;;42.10;1.00;;;;;;5082755;28;20460;-70